Time;durP1;ratioP1;P1;durP2;ratioP2;P2;SDS_P1;SDS_P2;PMS_P1;PMS_P2;Temp;Humidity;BMP_temperature;BMP_pressure;BME280_temperature;BME280_humidity;BME280_pressure;Samples;Min_cycle;Max_cycle;Signal;HPM_P1;HPM_P2
2022/10/17 00:00:42;;;;;;;1.87;1.77;;;18.50;42.60;;;;;;10383559;28;20287;-71
2022/10/17 00:05:47;;;;;;;2.03;1.57;;;18.50;42.90;;;;;;10385328;28;20225;-71
2022/10/17 00:10:57;;;;;;;2.03;1.67;;;18.40;42.70;;;;;;10382042;28;20313;-71
2022/10/17 00:16:02;;;;;;;1.87;1.77;;;18.40;43.20;;;;;;10384490;28;20244;-71
2022/10/17 00:21:05;;;;;;;1.90;1.80;;;18.30;43.10;;;;;;10374118;28;20222;-70
2022/10/17 00:26:09;;;;;;;2.00;1.90;;;18.20;42.70;;;;;;10367616;28;20226;-71
2022/10/17 00:31:15;;;;;;;1.83;1.53;;;18.20;42.80;;;;;;10376739;28;20226;-71
2022/10/17 00:36:21;;;;;;;1.90;1.80;;;18.10;43.00;;;;;;10374308;28;20280;-71
2022/10/17 00:41:26;;;;;;;4.93;1.73;;;18.00;43.30;;;;;;10372928;28;20230;-71
2022/10/17 00:46:33;;;;;;;3.87;1.77;;;18.00;44.00;;;;;;10370294;28;20607;-71
2022/10/17 00:51:42;;;;;;;2.70;1.70;;;18.00;43.00;;;;;;10373230;28;20736;-71
2022/10/17 00:56:47;;;;;;;2.00;1.80;;;17.90;43.10;;;;;;10370181;28;20240;-71
2022/10/17 01:01:59;;;;;;;2.07;1.87;;;17.90;43.10;;;;;;10376810;28;20236;-71
2022/10/17 01:07:03;;;;;;;1.90;1.80;;;17.80;43.30;;;;;;10369414;28;20221;-70
2022/10/17 01:12:15;;;;;;;1.67;1.57;;;17.80;43.00;;;;;;10375857;28;20825;-70
2022/10/17 01:17:27;;;;;;;2.23;1.87;;;17.80;43.30;;;;;;10368630;28;20230;-71
2022/10/17 01:22:39;;;;;;;2.70;1.70;;;17.80;43.30;;;;;;10380384;28;20233;-71
2022/10/17 01:28:10;;;;;;;1.93;1.30;;;17.70;43.00;;;;;;10377838;28;20700;-71
2022/10/17 01:33:19;;;;;;;2.93;1.63;;;17.70;42.90;;;;;;10368981;28;20225;-67
2022/10/17 01:38:27;;;;;;;1.70;1.60;;;17.60;42.90;;;;;;10371185;28;20226;-67
2022/10/17 01:43:37;;;;;;;1.60;1.40;;;17.60;43.00;;;;;;10370625;28;20222;-67
2022/10/17 01:48:45;;;;;;;4.47;1.83;;;17.50;43.00;;;;;;10372277;28;20234;-67
2022/10/17 01:53:52;;;;;;;1.57;1.30;;;17.50;42.80;;;;;;10373287;28;20593;-67
2022/10/17 01:59:00;;;;;;;1.40;1.30;;;17.40;42.70;;;;;;10365123;28;20233;-68
2022/10/17 02:04:09;;;;;;;2.63;1.27;;;17.40;42.50;;;;;;10372135;28;20218;-67
2022/10/17 02:09:20;;;;;;;2.10;1.10;;;17.40;42.70;;;;;;10365283;28;20230;-67
2022/10/17 02:14:36;;;;;;;1.40;1.40;;;17.30;42.60;;;;;;10367085;28;20244;-67
2022/10/17 02:19:50;;;;;;;1.37;1.30;;;17.30;42.60;;;;;;10373728;28;20708;-67
2022/10/17 02:25:02;;;;;;;1.40;1.30;;;17.20;42.60;;;;;;10375519;28;20255;-67
2022/10/17 02:30:12;;;;;;;4.00;1.30;;;17.20;42.50;;;;;;10380903;28;20233;-67
2022/10/17 02:35:20;;;;;;;1.90;1.37;;;17.10;42.50;;;;;;10388478;28;20750;-67
2022/10/17 02:40:24;;;;;;;1.87;1.10;;;17.10;42.60;;;;;;10388984;28;20243;-67
2022/10/17 02:45:34;;;;;;;1.63;1.10;;;17.00;42.60;;;;;;10385308;28;20226;-67
2022/10/17 02:50:49;;;;;;;1.10;1.10;;;17.00;42.60;;;;;;10385684;28;20320;-67
2022/10/17 02:55:58;;;;;;;3.90;1.43;;;16.90;42.70;;;;;;10388428;28;20222;-67
2022/10/17 03:01:04;;;;;;;1.30;1.30;;;16.90;42.50;;;;;;10386978;28;20279;-67
2022/10/17 03:06:08;;;;;;;2.67;2.17;;;16.80;42.30;;;;;;10385973;28;20244;-69
2022/10/17 03:11:11;;;;;;;2.73;2.53;;;16.70;42.70;;;;;;10385083;28;20300;-67
2022/10/17 03:16:14;;;;;;;2.93;1.80;;;16.60;42.60;;;;;;10384118;28;20236;-67
2022/10/17 03:21:19;;;;;;;2.33;2.13;;;16.50;42.50;;;;;;10387864;28;20226;-67
2022/10/17 03:26:23;;;;;;;2.10;2.00;;;16.50;42.70;;;;;;10382530;28;20287;-67
2022/10/17 03:31:26;;;;;;;2.70;2.50;;;16.40;42.60;;;;;;10385596;28;20245;-67
2022/10/17 03:36:30;;;;;;;2.27;2.13;;;16.40;42.70;;;;;;10382938;28;20232;-67
2022/10/17 03:41:34;;;;;;;2.97;2.00;;;16.30;43.00;;;;;;10382765;28;20253;-67
2022/10/17 03:46:37;;;;;;;2.10;1.90;;;16.30;43.00;;;;;;10386410;28;20790;-67
2022/10/17 03:51:41;;;;;;;2.63;2.30;;;16.30;43.00;;;;;;10385919;28;20234;-67
2022/10/17 03:56:45;;;;;;;4.43;1.80;;;16.20;43.30;;;;;;10381605;28;20245;-67
2022/10/17 04:01:48;;;;;;;2.83;1.90;;;16.20;42.90;;;;;;10381202;28;20210;-70
2022/10/17 04:06:52;;;;;;;2.97;2.20;;;16.10;43.00;;;;;;10389208;28;20222;-67
2022/10/17 04:11:56;;;;;;;2.40;2.20;;;16.10;43.50;;;;;;10380209;28;20230;-67
2022/10/17 04:16:59;;;;;;;5.27;2.50;;;16.00;43.40;;;;;;10381456;28;20274;-67
2022/10/17 04:22:03;;;;;;;2.67;2.47;;;16.00;43.60;;;;;;10379787;28;20237;-68
2022/10/17 04:27:06;;;;;;;2.80;2.53;;;15.90;43.80;;;;;;10384589;28;20233;-67
2022/10/17 04:32:10;;;;;;;2.20;2.00;;;15.90;43.70;;;;;;10381657;28;20226;-67
2022/10/17 04:37:14;;;;;;;4.00;2.70;;;15.90;43.90;;;;;;10387001;28;20248;-67
2022/10/17 04:42:17;;;;;;;8.80;2.63;;;15.90;44.10;;;;;;10375903;28;20226;-67
2022/10/17 04:47:20;;;;;;;2.70;2.50;;;15.90;43.90;;;;;;10380300;28;20234;-68
2022/10/17 04:52:25;;;;;;;9.63;3.07;;;15.80;44.00;;;;;;10381314;28;20230;-67
2022/10/17 04:57:28;;;;;;;4.73;2.63;;;15.80;44.70;;;;;;10378618;28;20313;-67
2022/10/17 05:02:31;;;;;;;2.73;2.40;;;15.70;44.40;;;;;;10381443;28;20229;-67
2022/10/17 05:07:40;;;;;;;2.63;2.43;;;15.60;44.50;;;;;;10383772;28;20232;-67
2022/10/17 05:12:43;;;;;;;7.67;2.40;;;15.50;44.80;;;;;;10377318;28;20267;-67
2022/10/17 05:17:46;;;;;;;2.50;2.10;;;15.50;44.70;;;;;;10381119;28;20300;-67
2022/10/17 05:22:50;;;;;;;4.43;2.27;;;15.50;44.80;;;;;;10381099;28;20230;-70
2022/10/17 05:27:54;;;;;;;3.50;3.20;;;15.50;45.60;;;;;;10379690;28;20237;-67
2022/10/17 05:32:57;;;;;;;13.83;12.53;;;15.50;44.80;;;;;;10380854;28;20257;-68
2022/10/17 05:38:01;;;;;;;19.33;17.33;;;15.50;44.80;;;;;;10382042;28;20230;-68
2022/10/17 05:43:04;;;;;;;42.60;32.97;;;15.60;44.90;;;;;;10380372;28;20229;-68
2022/10/17 05:48:08;;;;;;;88.37;63.47;;;15.70;45.00;;;;;;10384522;28;20234;-68
2022/10/17 05:53:13;;;;;;;64.67;49.23;;;15.60;44.70;;;;;;10376337;28;20279;-68
2022/10/17 05:58:16;;;;;;;34.77;27.77;;;15.50;44.80;;;;;;10385384;28;20226;-68
2022/10/17 06:03:24;;;;;;;18.33;14.77;;;15.50;44.40;;;;;;10381615;28;20225;-68
2022/10/17 06:08:28;;;;;;;9.10;8.20;;;15.50;44.30;;;;;;10379513;28;20233;-68
2022/10/17 06:13:32;;;;;;;6.03;5.27;;;15.50;44.50;;;;;;10383262;28;20225;-68
2022/10/17 06:18:35;;;;;;;4.63;4.23;;;15.50;44.30;;;;;;10380752;28;20642;-68
2022/10/17 06:23:39;;;;;;;5.23;4.47;;;15.50;44.40;;;;;;10382582;28;20754;-68
2022/10/17 06:28:42;;;;;;;5.20;4.70;;;15.50;44.40;;;;;;10373221;28;20238;-68
2022/10/17 06:33:46;;;;;;;5.70;4.50;;;15.40;44.40;;;;;;10379825;28;20851;-68
2022/10/17 06:38:50;;;;;;;6.33;5.63;;;15.40;44.60;;;;;;10381762;28;20236;-68
2022/10/17 06:43:53;;;;;;;7.53;6.43;;;15.40;44.70;;;;;;10377714;28;20865;-68
2022/10/17 06:48:57;;;;;;;6.23;5.73;;;15.50;44.80;;;;;;10373350;28;20245;-68
2022/10/17 06:54:01;;;;;;;5.37;4.97;;;15.40;44.70;;;;;;10377811;28;20295;-68
2022/10/17 06:59:04;;;;;;;5.20;4.80;;;15.50;44.80;;;;;;10373570;28;20222;-68
2022/10/17 07:04:07;;;;;;;4.87;4.33;;;15.50;44.80;;;;;;10375971;28;20226;-69
2022/10/17 07:09:12;;;;;;;4.50;4.10;;;15.50;44.80;;;;;;10372951;28;20230;-68
2022/10/17 07:14:16;;;;;;;3.67;3.37;;;15.50;45.20;;;;;;10385741;28;20296;-68
2022/10/17 07:19:20;;;;;;;3.07;2.87;;;15.60;45.00;;;;;;10380441;28;20881;-68
2022/10/17 07:24:24;;;;;;;2.77;2.57;;;15.70;45.60;;;;;;10382541;28;20595;-68
2022/10/17 07:29:27;;;;;;;2.73;2.53;;;15.70;46.40;;;;;;10385570;28;20225;-68
2022/10/17 07:34:30;;;;;;;3.03;2.83;;;15.80;46.30;;;;;;10383767;28;20237;-68
2022/10/17 07:39:35;;;;;;;4.00;2.93;;;15.90;46.70;;;;;;10378163;28;20786;-68
2022/10/17 07:44:38;;;;;;;2.97;2.67;;;16.00;47.80;;;;;;10370926;28;20229;-67
2022/10/17 07:49:43;;;;;;;3.37;3.10;;;16.20;47.90;;;;;;10372556;28;20230;-67
2022/10/17 07:54:47;;;;;;;2.80;2.47;;;16.40;48.40;;;;;;10362088;28;20230;-67
2022/10/17 07:59:50;;;;;;;3.23;3.03;;;16.70;49.20;;;;;;10368860;28;20237;-67
2022/10/17 08:04:54;;;;;;;2.73;2.57;;;16.90;49.00;;;;;;10370930;28;20229;-67
2022/10/17 08:09:58;;;;;;;2.80;2.60;;;17.20;49.10;;;;;;10369757;28;20253;-67
2022/10/17 08:15:02;;;;;;;2.23;2.13;;;17.50;49.50;;;;;;10368197;28;20230;-68
2022/10/17 08:20:06;;;;;;;4.93;3.17;;;17.70;49.00;;;;;;10366534;28;20283;-67
2022/10/17 08:25:11;;;;;;;4.37;2.80;;;18.00;48.90;;;;;;10366516;28;20218;-67
2022/10/17 08:30:14;;;;;;;2.97;2.73;;;18.20;48.80;;;;;;10369343;28;20222;-67
2022/10/17 08:35:17;;;;;;;2.90;2.70;;;18.40;48.50;;;;;;10363403;28;20256;-67
2022/10/17 08:40:26;;;;;;;3.00;2.70;;;18.60;48.40;;;;;;10364496;28;20230;-67
2022/10/17 08:45:33;;;;;;;2.80;2.60;;;18.90;48.20;;;;;;10362046;28;20218;-67
2022/10/17 08:50:40;;;;;;;4.33;2.67;;;19.20;48.00;;;;;;10364029;28;20229;-67
2022/10/17 08:55:47;;;;;;;3.10;2.63;;;19.40;48.20;;;;;;10364939;28;20253;-67
2022/10/17 09:01:01;;;;;;;2.80;2.60;;;19.60;47.50;;;;;;10359478;28;20230;-67
2022/10/17 09:06:20;;;;;;;3.50;2.70;;;19.90;47.70;;;;;;10361322;28;20224;-67
2022/10/17 09:11:40;;;;;;;4.27;2.40;;;20.10;47.20;;;;;;10362921;28;20264;-67
2022/10/17 09:16:56;;;;;;;2.40;2.30;;;20.30;46.70;;;;;;10364199;28;20233;-67
2022/10/17 09:22:04;;;;;;;2.50;2.40;;;20.50;46.40;;;;;;10366220;28;20318;-67
2022/10/17 09:27:18;;;;;;;2.73;2.43;;;20.70;46.00;;;;;;10362032;28;20233;-68
2022/10/17 09:32:25;;;;;;;2.43;2.23;;;20.90;45.90;;;;;;10364952;28;20237;-67
2022/10/17 09:37:32;;;;;;;2.67;2.37;;;21.10;45.80;;;;;;10348087;28;20620;-67
2022/10/17 09:42:37;;;;;;;2.90;2.50;;;21.30;45.30;;;;;;10364619;28;20244;-67
2022/10/17 09:47:44;;;;;;;2.53;2.33;;;21.40;45.40;;;;;;10363911;28;20252;-67
2022/10/17 09:52:49;;;;;;;2.67;2.33;;;21.60;45.00;;;;;;10367034;28;20907;-68
2022/10/17 09:57:56;;;;;;;4.13;2.87;;;21.70;45.10;;;;;;10375761;28;20223;-67
2022/10/17 10:03:11;;;;;;;2.33;2.23;;;21.80;44.30;;;;;;10381078;28;20222;-67
2022/10/17 10:08:16;;;;;;;3.13;2.17;;;22.00;44.60;;;;;;10378642;28;20236;-67
2022/10/17 10:13:25;;;;;;;2.57;2.30;;;22.20;44.30;;;;;;10375900;28;20768;-67
2022/10/17 10:18:31;;;;;;;2.30;2.20;;;22.30;44.00;;;;;;10376652;28;20230;-67
2022/10/17 10:23:38;;;;;;;4.03;2.10;;;22.40;44.20;;;;;;10376100;28;20225;-67
2022/10/17 10:28:52;;;;;;;2.73;2.40;;;22.50;44.20;;;;;;10378107;28;20230;-67
2022/10/17 10:33:56;;;;;;;2.30;2.10;;;22.60;43.20;;;;;;10366399;28;20240;-67
2022/10/17 10:39:00;;;;;;;2.17;1.97;;;22.70;43.70;;;;;;10367610;28;20694;-67
2022/10/17 10:44:15;;;;;;;3.00;2.47;;;22.90;43.40;;;;;;10376299;28;20218;-67
2022/10/17 10:49:29;;;;;;;2.27;2.07;;;23.10;42.00;;;;;;10374766;28;20237;-67
2022/10/17 10:54:37;;;;;;;2.37;2.27;;;23.20;42.50;;;;;;10377340;28;20233;-67
2022/10/17 10:59:57;;;;;;;2.63;2.43;;;23.40;42.30;;;;;;10373713;28;20578;-67
2022/10/17 11:05:06;;;;;;;2.57;2.23;;;23.50;41.50;;;;;;10376532;28;20222;-67
2022/10/17 11:10:15;;;;;;;3.73;2.30;;;23.70;41.40;;;;;;10372837;28;20222;-67
2022/10/17 11:15:25;;;;;;;2.80;2.60;;;23.80;41.80;;;;;;10371944;28;20230;-67
2022/10/17 11:20:36;;;;;;;2.63;2.43;;;23.90;42.30;;;;;;10374037;28;20233;-67
2022/10/17 11:25:41;;;;;;;2.43;2.33;;;24.00;42.90;;;;;;10376884;28;20231;-67
2022/10/17 11:31:04;;;;;;;3.40;2.60;;;24.00;42.20;;;;;;10374603;28;20237;-67
2022/10/17 11:36:11;;;;;;;2.73;2.53;;;24.10;41.80;;;;;;10370761;28;20685;-67
2022/10/17 11:41:18;;;;;;;3.13;2.50;;;24.10;42.20;;;;;;10378967;28;20230;-68
2022/10/17 11:46:24;;;;;;;2.60;2.20;;;24.10;41.60;;;;;;10376988;28;20727;-67
2022/10/17 11:51:30;;;;;;;2.17;2.07;;;24.10;41.20;;;;;;10378760;28;20234;-67
2022/10/17 11:57:18;;;;;;;2.50;2.40;;;24.10;41.10;;;;;;10379783;28;20304;-67
2022/10/17 12:02:34;;;;;;;2.37;2.27;;;24.20;41.40;;;;;;10380633;28;21027;-68
2022/10/17 12:07:47;;;;;;;2.60;2.40;;;24.20;40.40;;;;;;10380605;28;20229;-67
2022/10/17 12:12:50;;;;;;;2.67;2.30;;;24.10;40.90;;;;;;10381226;28;20226;-67
2022/10/17 12:17:58;;;;;;;2.70;2.50;;;24.10;41.60;;;;;;10380323;28;20279;-67
2022/10/17 12:23:21;;;;;;;2.60;2.40;;;24.20;40.20;;;;;;10380734;28;20226;-67
2022/10/17 12:28:30;;;;;;;2.30;2.20;;;24.10;40.10;;;;;;10378903;28;20222;-67
2022/10/17 12:33:38;;;;;;;2.70;2.50;;;24.10;40.10;;;;;;10382465;28;20285;-67
2022/10/17 12:38:41;;;;;;;2.27;2.13;;;24.10;40.10;;;;;;10381024;28;20233;-67
2022/10/17 12:43:51;;;;;;;3.43;2.20;;;24.10;40.90;;;;;;10379484;28;20922;-67
2022/10/17 12:49:24;;;;;;;4.87;2.40;;;24.10;40.10;;;;;;10378145;28;20284;-67
2022/10/17 12:54:28;;;;;;;3.17;2.70;;;24.20;40.20;;;;;;10360793;28;20240;-67
2022/10/17 12:59:49;;;;;;;2.57;2.37;;;24.30;40.50;;;;;;10365539;28;20233;-68
2022/10/17 13:05:05;;;;;;;2.40;2.20;;;24.30;40.30;;;;;;10360881;28;20284;-67
2022/10/17 13:10:23;;;;;;;3.00;2.20;;;24.30;40.20;;;;;;10364000;28;20232;-68
2022/10/17 13:15:26;;;;;;;2.20;2.10;;;24.40;40.30;;;;;;10364169;28;20294;-68
2022/10/17 13:20:32;;;;;;;2.30;2.20;;;24.50;40.50;;;;;;10363816;28;20237;-68
2022/10/17 13:25:35;;;;;;;2.20;2.10;;;24.50;39.80;;;;;;10374327;28;20636;-67
2022/10/17 13:30:46;;;;;;;3.10;2.23;;;24.50;40.50;;;;;;10377089;28;20245;-67
2022/10/17 13:35:53;;;;;;;2.43;2.20;;;24.60;39.90;;;;;;10374557;28;20311;-67
2022/10/17 13:41:09;;;;;;;2.10;2.00;;;24.70;40.60;;;;;;10377614;28;20226;-68
2022/10/17 13:46:35;;;;;;;2.20;2.10;;;24.70;40.60;;;;;;10372492;28;20288;-68
2022/10/17 13:51:45;;;;;;;2.20;2.00;;;24.70;40.60;;;;;;10362199;28;20230;-68
2022/10/17 13:56:56;;;;;;;2.40;2.20;;;24.80;40.70;;;;;;10368256;28;20719;-68
2022/10/17 14:02:01;;;;;;;2.67;2.47;;;24.80;40.20;;;;;;10378699;28;20226;-67
2022/10/17 14:07:06;;;;;;;2.40;2.20;;;24.70;40.60;;;;;;10372545;28;20221;-67
2022/10/17 14:12:12;;;;;;;2.57;2.37;;;24.70;40.70;;;;;;10368487;28;20228;-68
2022/10/17 14:17:21;;;;;;;2.60;2.40;;;24.70;40.60;;;;;;10364722;28;20234;-67
2022/10/17 14:22:29;;;;;;;2.87;2.20;;;24.70;40.70;;;;;;10375331;28;20238;-68
2022/10/17 14:27:35;;;;;;;2.60;2.40;;;24.70;40.60;;;;;;10375793;28;20763;-67
2022/10/17 14:32:38;;;;;;;3.00;2.80;;;24.70;40.60;;;;;;10376391;28;20985;-68
2022/10/17 14:37:46;;;;;;;2.63;2.27;;;24.70;40.60;;;;;;10376123;28;20729;-67
2022/10/17 14:42:50;;;;;;;2.70;2.50;;;24.70;40.60;;;;;;10374878;28;20236;-67
2022/10/17 14:47:57;;;;;;;4.93;2.63;;;24.70;40.60;;;;;;10373232;28;20233;-67
2022/10/17 14:53:04;;;;;;;2.63;2.30;;;24.70;40.60;;;;;;10376171;28;20229;-67
2022/10/17 14:58:17;;;;;;;3.10;2.30;;;24.70;40.60;;;;;;10377592;28;20265;-67
2022/10/17 15:03:21;;;;;;;2.67;2.47;;;24.70;40.60;;;;;;10373558;28;20225;-67
2022/10/17 15:08:25;;;;;;;2.57;2.37;;;24.60;40.50;;;;;;10374825;28;20225;-68
2022/10/17 15:13:28;;;;;;;2.63;2.07;;;24.60;40.50;;;;;;10375386;28;20221;-67
2022/10/17 15:18:36;;;;;;;2.50;2.30;;;24.60;40.60;;;;;;10374803;28;21088;-67
2022/10/17 15:23:41;;;;;;;3.37;2.47;;;24.60;40.50;;;;;;10377191;28;20229;-67
2022/10/17 15:28:46;;;;;;;4.23;2.40;;;24.50;40.50;;;;;;10373043;28;20327;-67
2022/10/17 15:33:49;;;;;;;2.63;2.43;;;24.50;41.00;;;;;;10380647;28;20238;-67
2022/10/17 15:38:56;;;;;;;3.90;2.80;;;24.40;41.20;;;;;;10384361;28;20244;-67
2022/10/17 15:43:59;;;;;;;4.13;2.60;;;24.40;41.10;;;;;;10383482;28;20781;-68
2022/10/17 15:49:06;;;;;;;3.83;2.33;;;24.30;41.00;;;;;;10384122;28;20222;-68
2022/10/17 15:54:10;;;;;;;2.40;2.20;;;24.30;41.20;;;;;;10385426;28;20221;-68
2022/10/17 15:59:18;;;;;;;2.73;2.50;;;24.20;41.10;;;;;;10382866;28;21053;-67
2022/10/17 16:04:22;;;;;;;3.47;2.40;;;24.10;41.10;;;;;;10378960;28;20238;-68
2022/10/17 16:09:28;;;;;;;2.80;2.33;;;24.00;40.90;;;;;;10382319;28;20750;-67
2022/10/17 16:14:32;;;;;;;2.63;2.43;;;23.90;41.00;;;;;;10376859;28;20234;-67
2022/10/17 16:19:35;;;;;;;2.83;2.63;;;23.80;41.00;;;;;;10378715;28;20292;-67
2022/10/17 16:24:39;;;;;;;3.20;2.50;;;23.70;41.10;;;;;;10382285;28;20234;-67
2022/10/17 16:29:42;;;;;;;3.33;2.73;;;23.60;41.20;;;;;;10380798;28;20705;-67
2022/10/17 16:34:45;;;;;;;4.97;3.20;;;23.60;41.20;;;;;;10378109;28;20234;-68
2022/10/17 16:39:52;;;;;;;2.80;2.60;;;23.50;41.10;;;;;;10373239;28;20226;-67
2022/10/17 16:44:55;;;;;;;5.23;3.00;;;23.40;41.10;;;;;;10376442;28;20245;-67
2022/10/17 16:49:58;;;;;;;6.77;3.00;;;23.20;40.90;;;;;;10380177;28;20234;-67
2022/10/17 16:55:03;;;;;;;5.93;5.33;;;23.10;41.00;;;;;;10378790;28;20628;-68
2022/10/17 17:00:08;;;;;;;6.43;5.70;;;23.00;41.00;;;;;;10378940;28;20222;-67
2022/10/17 17:05:11;;;;;;;7.50;6.20;;;22.90;41.10;;;;;;10374957;28;20250;-68
2022/10/17 17:10:16;;;;;;;6.03;5.50;;;22.80;40.90;;;;;;10380274;28;20898;-68
2022/10/17 17:15:19;;;;;;;5.10;4.70;;;22.60;40.90;;;;;;10379415;28;20724;-67
2022/10/17 17:20:22;;;;;;;5.07;4.67;;;22.50;41.10;;;;;;10373762;28;20234;-68
2022/10/17 17:25:27;;;;;;;5.10;4.37;;;22.40;41.00;;;;;;10376366;28;20236;-68
2022/10/17 17:30:30;;;;;;;4.73;4.03;;;22.30;41.00;;;;;;10370697;28;20283;-68
2022/10/17 17:35:33;;;;;;;6.53;5.67;;;22.20;41.10;;;;;;10374743;28;20614;-67
2022/10/17 17:40:43;;;;;;;8.77;6.10;;;22.10;41.10;;;;;;10376102;28;20245;-68
2022/10/17 17:45:53;;;;;;;7.27;6.23;;;22.00;42.00;;;;;;10377286;28;20218;-68
2022/10/17 17:50:56;;;;;;;7.33;6.63;;;21.90;41.10;;;;;;10374714;28;20623;-67
2022/10/17 17:56:05;;;;;;;7.80;6.17;;;21.70;41.00;;;;;;10379797;28;20218;-67
2022/10/17 18:01:11;;;;;;;7.47;5.27;;;21.60;41.40;;;;;;10378333;28;20233;-68
2022/10/17 18:06:17;;;;;;;4.67;4.27;;;21.50;41.40;;;;;;10375861;28;20218;-67
2022/10/17 18:11:22;;;;;;;5.60;4.00;;;21.40;41.40;;;;;;10378245;28;20237;-67
2022/10/17 18:16:26;;;;;;;3.90;3.60;;;21.30;41.50;;;;;;10377438;28;20234;-67
2022/10/17 18:21:29;;;;;;;3.50;3.00;;;21.20;41.30;;;;;;10373033;28;20230;-68
2022/10/17 18:26:34;;;;;;;4.77;3.77;;;21.20;41.30;;;;;;10362584;28;20244;-67
2022/10/17 18:31:37;;;;;;;3.90;3.53;;;21.10;41.50;;;;;;10376986;28;20229;-68
2022/10/17 18:36:40;;;;;;;3.70;3.40;;;21.10;41.30;;;;;;10373935;28;20233;-68
2022/10/17 18:41:45;;;;;;;5.33;3.60;;;21.00;41.50;;;;;;10370651;28;20230;-67
2022/10/17 18:46:48;;;;;;;4.10;3.73;;;20.90;41.50;;;;;;10376777;28;20222;-67
2022/10/17 18:51:52;;;;;;;4.10;3.73;;;20.80;41.50;;;;;;10374666;28;20573;-67
2022/10/17 18:56:56;;;;;;;4.83;3.87;;;20.80;41.70;;;;;;10357897;28;20229;-69
2022/10/17 19:01:59;;;;;;;5.00;4.33;;;20.70;41.90;;;;;;10360363;28;20699;-69
2022/10/17 19:07:03;;;;;;;4.80;4.40;;;20.60;41.60;;;;;;10371375;28;20225;-69
2022/10/17 19:12:07;;;;;;;4.60;4.20;;;20.60;41.80;;;;;;10369936;28;20217;-69
2022/10/17 19:17:10;;;;;;;5.17;3.83;;;20.50;41.80;;;;;;10371206;28;20237;-69
2022/10/17 19:22:13;;;;;;;13.20;11.07;;;20.40;41.80;;;;;;10368538;28;20221;-69
2022/10/17 19:27:19;;;;;;;16.27;14.70;;;20.40;41.90;;;;;;10364567;28;20222;-69
2022/10/17 19:32:22;;;;;;;11.83;10.63;;;20.30;42.00;;;;;;10376642;28;20234;-69
2022/10/17 19:37:25;;;;;;;9.00;6.73;;;20.20;41.70;;;;;;10364484;28;20751;-69
2022/10/17 19:42:33;;;;;;;5.87;5.37;;;20.10;41.70;;;;;;10372130;28;20230;-69
2022/10/17 19:47:38;;;;;;;5.27;4.80;;;19.90;41.70;;;;;;10372362;28;20222;-69
2022/10/17 19:52:41;;;;;;;4.60;4.17;;;20.00;42.10;;;;;;10371253;28;20233;-69
2022/10/17 19:57:46;;;;;;;4.50;4.10;;;19.90;41.80;;;;;;10368036;28;20238;-69
2022/10/17 20:02:49;;;;;;;4.63;4.13;;;19.80;41.80;;;;;;10372837;28;20630;-69
2022/10/17 20:07:53;;;;;;;5.33;4.33;;;19.70;41.60;;;;;;10372034;28;20234;-69
2022/10/17 20:12:57;;;;;;;4.40;4.00;;;19.50;41.80;;;;;;10376126;28;20691;-69
2022/10/17 20:18:00;;;;;;;4.73;4.33;;;19.40;42.20;;;;;;10372266;28;20641;-69
2022/10/17 20:23:05;;;;;;;4.80;4.17;;;19.30;42.00;;;;;;10357540;28;20966;-70
2022/10/17 20:28:09;;;;;;;9.17;4.50;;;19.20;42.40;;;;;;10367835;28;20230;-69
2022/10/17 20:33:14;;;;;;;5.00;4.50;;;19.10;42.50;;;;;;10369469;28;20261;-68
2022/10/17 20:38:17;;;;;;;4.97;4.50;;;19.00;42.40;;;;;;10385983;28;20943;-68
2022/10/17 20:43:22;;;;;;;5.10;4.67;;;19.00;42.50;;;;;;10384464;28;20221;-69
2022/10/17 20:48:26;;;;;;;4.93;4.30;;;18.90;42.70;;;;;;10381949;28;20238;-68
2022/10/17 20:53:30;;;;;;;5.07;4.53;;;18.90;42.60;;;;;;10376379;28;20221;-68
2022/10/17 20:58:40;;;;;;;4.60;4.20;;;18.80;42.50;;;;;;10380639;28;20657;-68
2022/10/17 21:03:43;;;;;;;4.37;3.97;;;18.70;42.80;;;;;;10387362;28;20230;-68
2022/10/17 21:08:49;;;;;;;6.73;4.30;;;18.60;42.60;;;;;;10381878;28;20227;-68
2022/10/17 21:13:59;;;;;;;4.83;3.63;;;18.50;42.60;;;;;;10384775;28;20364;-68
2022/10/17 21:19:03;;;;;;;3.80;3.50;;;18.50;43.20;;;;;;10385410;28;20234;-69
2022/10/17 21:24:11;;;;;;;3.97;3.40;;;18.40;42.60;;;;;;10381136;28;20276;-69
2022/10/17 21:29:15;;;;;;;5.13;3.80;;;18.30;42.80;;;;;;10382781;28;20368;-68
2022/10/17 21:34:20;;;;;;;4.03;3.50;;;18.30;43.00;;;;;;10382968;28;20591;-69
2022/10/17 21:39:24;;;;;;;4.43;3.97;;;18.20;42.80;;;;;;10391145;28;20285;-68
2022/10/17 21:44:28;;;;;;;3.87;3.57;;;18.20;42.70;;;;;;10383923;28;20226;-68
2022/10/17 21:49:32;;;;;;;5.13;4.20;;;18.10;43.00;;;;;;10380270;28;20251;-68
2022/10/17 21:54:35;;;;;;;3.93;3.63;;;18.10;42.90;;;;;;10388229;28;20228;-68
2022/10/17 21:59:40;;;;;;;5.53;3.93;;;18.00;42.70;;;;;;10378014;28;20841;-68
2022/10/17 22:04:43;;;;;;;5.93;3.90;;;17.90;43.10;;;;;;10385125;28;20304;-68
2022/10/17 22:09:46;;;;;;;5.33;3.40;;;17.90;43.00;;;;;;10379271;28;20761;-68
2022/10/17 22:14:51;;;;;;;6.30;4.20;;;17.90;43.10;;;;;;10382414;28;20222;-68
2022/10/17 22:19:54;;;;;;;4.73;4.07;;;17.80;43.20;;;;;;10382117;28;20226;-68
2022/10/17 22:24:57;;;;;;;3.50;3.20;;;17.80;42.90;;;;;;10384849;28;20237;-68
2022/10/17 22:30:01;;;;;;;6.63;3.87;;;17.80;43.00;;;;;;10381994;28;20217;-68
2022/10/17 22:35:06;;;;;;;5.83;3.80;;;17.70;43.30;;;;;;10376315;28;20225;-69
2022/10/17 22:40:09;;;;;;;3.80;3.50;;;17.70;43.20;;;;;;10387760;28;20284;-69
2022/10/17 22:45:14;;;;;;;4.90;4.10;;;17.60;43.10;;;;;;10394898;28;20225;-68
2022/10/17 22:50:18;;;;;;;4.20;3.70;;;17.60;43.20;;;;;;10393582;28;20233;-68
2022/10/17 22:55:21;;;;;;;4.30;3.80;;;17.50;43.20;;;;;;10392490;28;20222;-68
2022/10/17 23:00:26;;;;;;;4.37;3.97;;;17.50;43.40;;;;;;10394110;28;20716;-68
2022/10/17 23:05:30;;;;;;;5.60;4.07;;;17.50;43.60;;;;;;10395351;28;20219;-68
2022/10/17 23:10:34;;;;;;;4.63;3.80;;;17.50;43.30;;;;;;10395324;28;20264;-69
2022/10/17 23:15:38;;;;;;;5.33;3.80;;;17.40;43.50;;;;;;10388464;28;20291;-68
2022/10/17 23:20:41;;;;;;;3.67;3.33;;;17.40;43.90;;;;;;10390218;28;20242;-69
2022/10/17 23:25:45;;;;;;;4.23;3.73;;;17.40;43.50;;;;;;10383383;28;20218;-69
2022/10/17 23:30:49;;;;;;;3.10;2.90;;;17.30;43.40;;;;;;10381202;28;20329;-69
2022/10/17 23:35:53;;;;;;;3.37;3.07;;;17.30;43.60;;;;;;10385081;28;20233;-69
2022/10/17 23:40:56;;;;;;;3.30;3.10;;;17.20;43.50;;;;;;10386711;28;20230;-69
2022/10/17 23:46:00;;;;;;;3.63;3.33;;;17.20;43.50;;;;;;10385449;28;20226;-69
2022/10/17 23:51:04;;;;;;;3.50;3.20;;;17.20;43.70;;;;;;10385632;28;20236;-69
2022/10/17 23:56:08;;;;;;;3.60;3.17;;;17.20;43.40;;;;;;10388808;28;20229;-69
